createdAt,value
2019-04-22T00:01:13.716Z,9.00
2019-04-22T00:03:49.719Z,9.00
2019-04-22T00:06:30.824Z,9.00
2019-04-22T00:09:04.048Z,9.00
2019-04-22T00:11:43.338Z,8.90
2019-04-22T00:14:00.855Z,8.70
2019-04-22T00:16:37.830Z,8.80
2019-04-22T00:19:15.195Z,8.80
2019-04-22T00:21:42.220Z,8.70
2019-04-22T00:24:04.422Z,8.70
2019-04-22T00:26:37.529Z,8.50
2019-04-22T00:29:35.697Z,8.50
2019-04-22T00:31:57.523Z,8.50
2019-04-22T00:34:24.065Z,8.40
2019-04-22T00:36:54.829Z,8.40
2019-04-22T00:39:33.743Z,8.30
2019-04-22T00:41:57.028Z,8.40
2019-04-22T00:44:35.456Z,8.20
2019-04-22T00:47:04.152Z,8.20
2019-04-22T00:52:05.846Z,8.20
2019-04-22T00:54:31.089Z,8.10
2019-04-22T00:56:54.188Z,8.20
2019-04-22T00:59:29.779Z,8.00
2019-04-22T01:02:00.714Z,7.90
2019-04-22T01:04:34.762Z,7.90
2019-04-22T01:07:02.037Z,7.90
2019-04-22T01:09:30.313Z,7.70
2019-04-22T01:11:59.142Z,7.60
2019-04-22T01:14:29.678Z,7.70
2019-04-22T01:17:00.064Z,7.70
2019-04-22T01:19:35.062Z,7.70
2019-04-22T01:21:58.384Z,7.70
2019-04-22T01:24:26.414Z,7.60
2019-04-22T01:26:53.690Z,7.50
2019-04-22T01:29:19.655Z,7.40
2019-04-22T01:31:40.615Z,7.40
2019-04-22T01:34:23.246Z,7.50
2019-04-22T01:37:01.480Z,7.50
2019-04-22T01:39:37.641Z,7.50
2019-04-22T01:42:06.286Z,7.50
2019-04-22T01:47:04.941Z,7.50
2019-04-22T01:49:38.297Z,7.50
2019-04-22T01:52:07.726Z,7.50
2019-04-22T01:54:41.588Z,7.50
2019-04-22T01:57:06.285Z,7.40
2019-04-22T01:59:31.651Z,7.40
2019-04-22T02:02:09.237Z,7.40
2019-04-22T02:04:46.112Z,7.40
2019-04-22T02:07:10.695Z,7.40
2019-04-22T02:09:45.389Z,7.50
2019-04-22T02:14:41.068Z,7.60
2019-04-22T02:17:14.027Z,7.60
2019-04-22T02:22:11.640Z,7.80
2019-04-22T02:29:44.180Z,8.00
2019-04-22T02:32:19.598Z,7.90
2019-04-22T02:34:46.093Z,7.80
2019-04-22T02:39:49.827Z,8.00
2019-04-22T02:44:47.149Z,8.20
2019-04-22T02:49:47.095Z,8.20
2019-04-22T02:52:26.257Z,8.20
2019-04-22T02:54:49.384Z,8.20
2019-04-22T02:57:32.027Z,8.30
2019-04-22T02:59:52.615Z,8.40
2019-04-22T03:02:18.997Z,8.40
2019-04-22T03:04:43.721Z,8.50
2019-04-22T03:07:16.429Z,8.40
2019-04-22T03:09:54.965Z,8.30
2019-04-22T03:12:29.166Z,8.20
2019-04-22T03:17:25.323Z,7.90
2019-04-22T03:22:21.987Z,7.70
2019-04-22T03:25:05.241Z,7.60
2019-04-22T03:27:19.668Z,7.50
2019-04-22T03:40:28.683Z,7.30
2019-04-22T03:50:24.341Z,7.30
2019-04-22T03:52:50.267Z,7.20
2019-04-22T03:55:17.282Z,7.10
2019-04-22T04:02:47.374Z,7.30
2019-04-22T04:05:29.534Z,7.30
2019-04-22T04:17:56.796Z,7.30
2019-04-22T04:25:40.910Z,7.30
2019-04-22T04:28:10.849Z,7.20
2019-04-22T04:30:29.867Z,7.20
2019-04-22T04:32:55.380Z,7.30
2019-04-22T04:35:43.762Z,7.20
2019-04-22T04:37:52.112Z,7.20
2019-04-22T04:45:34.720Z,7.10
2019-04-22T04:47:57.962Z,7.20
2019-04-22T04:50:18.399Z,7.20
2019-04-22T05:00:39.728Z,7.40
2019-04-22T05:02:55.896Z,7.50
2019-04-22T05:10:34.897Z,7.90
2019-04-22T05:12:57.394Z,8.00
2019-04-22T05:25:25.183Z,8.60
2019-04-22T05:30:26.885Z,8.70
2019-04-22T05:32:52.116Z,8.70
2019-04-22T05:35:20.745Z,8.80
2019-04-22T05:37:58.104Z,8.70
2019-04-22T05:40:25.913Z,8.70
2019-04-22T05:42:51.289Z,8.60
2019-04-22T05:45:23.146Z,8.80
2019-04-22T05:47:52.246Z,8.90
2019-04-22T05:50:20.358Z,8.80
2019-04-22T05:52:54.271Z,8.70
2019-04-22T05:55:22.447Z,8.60
2019-04-22T05:57:52.264Z,8.60
2019-04-22T06:00:36.973Z,8.60
2019-04-22T06:05:24.728Z,8.70
2019-04-22T06:07:52.708Z,8.70
2019-04-22T06:12:58.191Z,8.70
2019-04-22T06:15:29.057Z,8.60
2019-04-22T06:18:12.427Z,8.60
2019-04-22T06:20:38.945Z,8.50
2019-04-22T06:23:04.544Z,8.60
2019-04-22T06:25:49.519Z,8.80
2019-04-22T06:28:15.585Z,8.80
2019-04-22T06:30:36.299Z,8.70
2019-04-22T06:33:09.464Z,8.90
2019-04-22T06:35:44.325Z,9.10
2019-04-22T06:38:25.680Z,9.20
2019-04-22T06:40:42.588Z,9.30
2019-04-22T06:43:10.429Z,9.50
2019-04-22T06:45:35.726Z,9.60
2019-04-22T06:48:12.563Z,9.70
2019-04-22T06:53:14.574Z,10.00
2019-04-22T06:55:44.231Z,10.00
2019-04-22T06:58:10.111Z,10.20
2019-04-22T07:00:41.566Z,10.20
2019-04-22T07:03:31.691Z,10.40
2019-04-22T07:05:41.325Z,10.60
2019-04-22T07:08:34.389Z,10.80
2019-04-22T07:10:42.073Z,10.80
2019-04-22T07:13:16.241Z,10.60
2019-04-22T07:15:50.511Z,10.70
2019-04-22T07:18:19.143Z,10.60
2019-04-22T07:20:44.167Z,10.30
2019-04-22T07:23:19.174Z,10.50
2019-04-22T07:31:00.320Z,10.50
2019-04-22T07:38:18.724Z,11.00
2019-04-22T07:40:50.170Z,11.00
2019-04-22T07:43:19.683Z,10.90
2019-04-22T07:48:26.552Z,11.40
2019-04-22T07:51:02.915Z,11.50
2019-04-22T07:53:10.427Z,11.80
2019-04-22T07:55:49.030Z,11.50
2019-04-22T07:58:18.281Z,11.70
2019-04-22T08:00:46.514Z,11.90
2019-04-22T08:03:18.386Z,12.00
2019-04-22T08:05:58.653Z,11.80
2019-04-22T08:08:26.357Z,12.10
2019-04-22T08:10:49.974Z,12.10
2019-04-22T08:13:22.967Z,12.20
2019-04-22T08:16:02.687Z,12.40
2019-04-22T08:18:22.065Z,12.30
2019-04-22T08:20:48.713Z,12.60
2019-04-22T08:23:25.279Z,12.70
2019-04-22T08:25:50.412Z,12.80
2019-04-22T08:28:26.329Z,12.90
2019-04-22T08:30:53.590Z,13.00
2019-04-22T08:36:07.228Z,13.00
2019-04-22T08:38:34.227Z,13.10
2019-04-22T08:41:32.099Z,13.20
2019-04-22T08:44:01.181Z,13.40
2019-04-22T08:46:24.213Z,13.80
2019-04-22T08:48:52.773Z,14.00
2019-04-22T08:51:22.177Z,14.20
2019-04-22T08:53:57.502Z,14.50
2019-04-22T08:56:29.340Z,14.60
2019-04-22T09:01:22.762Z,15.00
2019-04-22T09:03:52.739Z,15.20
2019-04-22T09:06:29.963Z,15.30
2019-04-22T09:08:55.336Z,15.50
2019-04-22T09:11:31.654Z,15.60
2019-04-22T09:16:29.888Z,15.60
2019-04-22T09:18:56.165Z,15.40
2019-04-22T09:21:26.079Z,15.30
2019-04-22T09:26:23.970Z,15.90
2019-04-22T09:31:19.611Z,16.00
2019-04-22T09:33:49.107Z,16.20
2019-04-22T09:38:49.250Z,16.60
2019-04-22T09:41:27.105Z,16.60
2019-04-22T09:46:28.282Z,16.10
2019-04-22T09:49:00.299Z,15.90
2019-04-22T09:51:29.138Z,16.20
2019-04-22T09:54:00.982Z,16.80
2019-04-22T09:56:24.104Z,17.30
2019-04-22T09:58:55.626Z,17.10
2019-04-22T10:04:05.386Z,16.80
2019-04-22T10:09:12.674Z,15.80
2019-04-22T10:11:35.140Z,16.10
2019-04-22T10:14:01.644Z,15.80
2019-04-22T10:16:33.868Z,15.80
2019-04-22T10:18:59.283Z,15.80
2019-04-22T10:24:03.421Z,16.00
2019-04-22T10:26:35.152Z,16.60
2019-04-22T10:33:49.642Z,16.60
2019-04-22T10:36:07.856Z,16.50
2019-04-22T10:38:36.791Z,16.60
2019-04-22T10:41:05.430Z,16.70
2019-04-22T10:43:34.962Z,16.80
2019-04-22T10:46:04.109Z,17.10
2019-04-22T10:48:34.376Z,17.50
2019-04-22T10:51:04.599Z,18.10
2019-04-22T10:53:33.455Z,18.70
2019-04-22T10:56:03.219Z,18.90
2019-04-22T10:58:32.972Z,19.10
2019-04-22T11:01:03.269Z,19.30
2019-04-22T11:03:33.216Z,19.10
2019-04-22T11:06:03.285Z,19.10
2019-04-22T11:08:40.417Z,19.20
2019-04-22T11:11:16.060Z,19.10
2019-04-22T11:13:33.767Z,19.00
2019-04-22T11:16:03.497Z,18.20
2019-04-22T11:18:33.635Z,18.30
2019-04-22T11:21:02.557Z,17.80
2019-04-22T11:23:32.390Z,18.70
2019-04-22T11:26:01.836Z,19.00
2019-04-22T11:28:31.839Z,18.80
2019-04-22T11:31:00.842Z,19.30
2019-04-22T11:33:30.358Z,18.60
2019-04-22T11:35:59.987Z,18.90
2019-04-22T11:38:28.864Z,19.20
2019-04-22T11:40:59.431Z,19.20
2019-04-22T11:43:28.507Z,19.30
2019-04-22T11:45:57.482Z,19.10
2019-04-22T11:48:27.033Z,19.40
2019-04-22T11:50:55.799Z,18.70
2019-04-22T11:53:26.968Z,19.00
2019-04-22T11:55:55.661Z,19.60
2019-04-22T11:58:24.642Z,20.10
2019-04-22T12:00:53.953Z,20.60
2019-04-22T12:03:25.130Z,20.10
2019-04-22T12:05:55.443Z,19.90
2019-04-22T12:08:37.421Z,20.50
2019-04-22T12:11:07.842Z,21.10
2019-04-22T12:13:36.286Z,21.40
2019-04-22T12:16:07.436Z,22.80
2019-04-22T12:18:37.339Z,23.10
2019-04-22T12:21:06.056Z,22.40
2019-04-22T12:23:34.922Z,22.70
2019-04-22T12:26:08.981Z,23.40
2019-04-22T12:28:34.991Z,23.30
2019-04-22T12:31:03.913Z,23.20
2019-04-22T12:33:32.512Z,22.60
2019-04-22T12:36:02.245Z,22.50
2019-04-22T12:38:31.508Z,22.90
2019-04-22T12:41:04.370Z,22.90
2019-04-22T12:43:31.732Z,24.10
2019-04-22T12:46:00.553Z,24.10
2019-04-22T12:48:29.076Z,24.40
2019-04-22T12:50:58.486Z,24.80
2019-04-22T12:53:28.190Z,24.80
2019-04-22T12:55:59.428Z,25.20
2019-04-22T12:58:29.806Z,25.60
2019-04-22T13:00:58.943Z,26.20
2019-04-22T13:03:28.586Z,24.50
2019-04-22T13:05:57.400Z,23.90
2019-04-22T13:08:27.506Z,23.50
2019-04-22T13:11:02.973Z,22.30
2019-04-22T13:13:27.168Z,22.90
2019-04-22T13:15:57.084Z,24.60
2019-04-22T13:18:35.269Z,25.20
2019-04-22T13:20:56.776Z,24.50
2019-04-22T13:23:25.597Z,24.40
2019-04-22T13:25:54.806Z,25.30
2019-04-22T13:28:25.115Z,25.60
2019-04-22T13:30:54.805Z,25.70
2019-04-22T13:33:24.959Z,25.70
2019-04-22T13:35:54.345Z,24.90
2019-04-22T13:38:25.001Z,24.80
2019-04-22T13:41:07.275Z,26.30
2019-04-22T13:43:24.979Z,26.50
2019-04-22T13:45:54.080Z,27.00
2019-04-22T13:51:36.390Z,23.90
2019-04-22T13:54:13.717Z,23.80
2019-04-22T13:54:23.441Z,26.20
2019-04-22T13:56:15.455Z,23.20
2019-04-22T13:58:38.515Z,22.50
2019-04-22T14:00:56.585Z,21.60
2019-04-22T14:03:44.433Z,21.30
2019-04-22T14:06:13.495Z,20.40
2019-04-22T14:08:43.103Z,19.10
2019-04-22T14:11:25.314Z,18.60
2019-04-22T14:13:42.016Z,18.00
2019-04-22T14:16:11.010Z,17.30
2019-04-22T14:18:41.091Z,16.50
2019-04-22T14:21:09.937Z,15.70
2019-04-22T14:23:38.520Z,15.00
2019-04-22T14:26:07.322Z,14.80
2019-04-22T14:28:35.906Z,14.90
2019-04-22T14:31:06.650Z,15.00
2019-04-22T14:33:36.311Z,15.00
2019-04-22T14:36:05.045Z,15.10
2019-04-22T14:38:34.689Z,15.20
2019-04-22T14:41:03.950Z,15.60
2019-04-22T14:44:00.577Z,17.30
2019-04-22T14:46:27.578Z,19.00
2019-04-22T14:48:58.974Z,21.00
2019-04-22T14:51:25.483Z,22.80
2019-04-22T14:53:52.266Z,22.70
2019-04-22T14:56:06.522Z,22.60
2019-04-22T14:58:35.321Z,23.00
2019-04-22T15:01:06.854Z,24.30
2019-04-22T15:03:38.134Z,25.20
2019-04-22T15:06:06.362Z,25.70
2019-04-22T15:08:35.234Z,25.60
2019-04-22T15:11:05.882Z,25.10
2019-04-22T15:13:35.532Z,23.60
2019-04-22T15:16:11.887Z,22.60
2019-04-22T15:18:45.960Z,21.30
2019-04-22T15:21:16.569Z,19.60
2019-04-22T15:23:46.579Z,18.20
2019-04-22T15:26:16.645Z,17.90
2019-04-22T15:28:45.344Z,18.50
2019-04-22T15:31:15.190Z,19.70
2019-04-22T15:33:47.048Z,20.90
2019-04-22T15:36:14.192Z,21.30
2019-04-22T15:38:42.701Z,21.80
2019-04-22T15:41:12.472Z,21.60
2019-04-22T15:43:41.590Z,21.50
2019-04-22T15:46:11.632Z,22.00
2019-04-22T15:48:42.042Z,22.20
2019-04-22T15:51:11.051Z,21.60
2019-04-22T15:53:39.893Z,20.60
2019-04-22T15:56:08.723Z,19.50
2019-04-22T15:58:37.487Z,18.80
2019-04-22T16:01:15.131Z,18.60
2019-04-22T16:03:36.930Z,18.40
2019-04-22T16:06:06.117Z,18.00
2019-04-22T16:08:37.306Z,17.70
2019-04-22T16:11:06.183Z,17.90
2019-04-22T16:13:38.068Z,18.30
2019-04-22T16:16:05.113Z,18.60
2019-04-22T16:18:33.681Z,18.70
2019-04-22T16:21:02.914Z,18.30
2019-04-22T16:23:42.381Z,18.10
2019-04-22T16:26:18.052Z,17.90
2019-04-22T16:28:47.361Z,18.00
2019-04-22T16:31:17.453Z,18.00
2019-04-22T16:33:47.855Z,17.90
2019-04-22T16:36:18.537Z,18.00
2019-04-22T16:38:47.093Z,17.90
2019-04-22T16:41:16.844Z,17.10
2019-04-22T16:43:46.721Z,16.70
2019-04-22T16:46:15.935Z,16.60
2019-04-22T16:48:45.408Z,16.40
2019-04-22T16:51:14.112Z,16.30
2019-04-22T16:53:45.232Z,16.10
2019-04-22T16:56:15.180Z,16.00
2019-04-22T16:58:44.030Z,15.80
2019-04-22T17:01:30.518Z,15.70
2019-04-22T17:04:00.802Z,15.60
2019-04-22T17:06:31.816Z,15.50
2019-04-22T17:09:00.530Z,15.50
2019-04-22T17:11:29.778Z,15.40
2019-04-22T17:13:59.339Z,15.40
2019-04-22T17:16:28.455Z,15.40
2019-04-22T17:19:00.441Z,15.30
2019-04-22T17:21:29.902Z,15.30
2019-04-22T17:23:59.403Z,15.20
2019-04-22T17:26:30.440Z,15.10
2019-04-22T17:29:02.598Z,15.10
2019-04-22T17:31:29.282Z,14.90
2019-04-22T17:33:59.022Z,14.80
2019-04-22T17:36:27.625Z,14.80
2019-04-22T17:39:13.526Z,14.80
2019-04-22T17:41:45.104Z,14.70
2019-04-22T17:44:26.316Z,14.70
2019-04-22T17:46:46.121Z,14.60
2019-04-22T17:49:31.928Z,14.50
2019-04-22T17:52:16.900Z,14.50
2019-04-22T17:54:42.209Z,14.50
2019-04-22T17:57:09.912Z,14.30
2019-04-22T17:59:43.443Z,14.20
2019-04-22T18:02:09.722Z,14.10
2019-04-22T18:04:29.042Z,14.10
2019-04-22T18:07:18.542Z,14.00
2019-04-22T18:10:16.533Z,13.90
2019-04-22T18:12:24.632Z,13.90
2019-04-22T18:14:47.987Z,13.90
2019-04-22T18:17:19.440Z,13.80
2019-04-22T18:19:47.753Z,13.80
2019-04-22T18:22:12.556Z,13.70
2019-04-22T18:24:43.891Z,13.60
2019-04-22T18:27:30.492Z,13.60
2019-04-22T18:29:46.157Z,13.60
2019-04-22T18:32:09.888Z,13.60
2019-04-22T18:34:41.156Z,13.60
2019-04-22T18:37:14.303Z,13.50
2019-04-22T18:39:52.706Z,13.50
2019-04-22T18:42:19.369Z,13.40
2019-04-22T18:44:55.497Z,13.40
2019-04-22T18:47:14.712Z,13.30
2019-04-22T18:49:46.105Z,13.30
2019-04-22T18:52:37.987Z,13.20
2019-04-22T18:55:04.225Z,13.10
2019-04-22T18:57:41.172Z,13.20
2019-04-22T19:00:04.291Z,13.10
2019-04-22T19:02:35.099Z,13.00
2019-04-22T19:05:12.201Z,12.90
2019-04-22T19:08:01.292Z,12.90
2019-04-22T19:10:30.799Z,12.90
2019-04-22T19:13:17.566Z,12.80
2019-04-22T19:15:25.275Z,12.90
2019-04-22T19:18:05.577Z,12.80
2019-04-22T19:20:30.981Z,12.80
2019-04-22T19:23:06.940Z,12.80
2019-04-22T19:25:24.047Z,12.70
2019-04-22T19:28:01.268Z,12.70
2019-04-22T19:30:36.918Z,12.70
2019-04-22T19:33:06.354Z,12.70
2019-04-22T19:35:32.973Z,12.70
2019-04-22T19:37:57.610Z,12.60
2019-04-22T19:40:52.809Z,12.60
2019-04-22T19:43:09.035Z,12.50
2019-04-22T19:45:48.985Z,12.40
2019-04-22T19:48:27.189Z,12.50
2019-04-22T19:50:57.541Z,12.50
2019-04-22T19:53:25.860Z,12.40
2019-04-22T19:55:49.862Z,12.40
2019-04-22T19:58:24.106Z,12.30
2019-04-22T20:00:51.994Z,12.30
2019-04-22T20:03:56.329Z,12.30
2019-04-22T20:06:33.643Z,12.30
2019-04-22T20:09:07.319Z,12.20
2019-04-22T20:11:34.100Z,12.20
2019-04-22T20:14:06.327Z,12.20
2019-04-22T20:16:32.549Z,12.10
2019-04-22T20:19:11.894Z,12.10
2019-04-22T20:21:45.248Z,12.10
2019-04-22T20:23:55.931Z,12.10
2019-04-22T20:26:44.157Z,12.10
2019-04-22T20:29:18.803Z,12.10
2019-04-22T20:31:44.184Z,12.00
2019-04-22T20:34:15.510Z,12.00
2019-04-22T20:39:09.265Z,11.90
2019-04-22T20:41:39.620Z,11.90
2019-04-22T20:44:16.396Z,11.90
2019-04-22T20:46:42.609Z,11.90
2019-04-22T20:49:15.165Z,11.80
2019-04-22T20:54:12.279Z,11.70
2019-04-22T20:56:38.627Z,11.60
2019-04-22T20:59:14.168Z,11.60
2019-04-22T21:01:47.735Z,11.60
2019-04-22T21:03:58.871Z,11.60
2019-04-22T21:06:42.281Z,11.50
2019-04-22T21:09:15.483Z,11.50
2019-04-22T21:11:38.527Z,11.50
2019-04-22T21:14:11.804Z,11.40
2019-04-22T21:16:46.379Z,11.40
2019-04-22T21:19:26.223Z,11.40
2019-04-22T21:21:46.970Z,11.30
2019-04-22T21:24:14.122Z,11.30
2019-04-22T21:26:43.718Z,11.30
2019-04-22T21:29:14.120Z,11.20
2019-04-22T21:31:48.158Z,11.20
2019-04-22T21:34:15.327Z,11.30
2019-04-22T21:36:50.672Z,11.20
2019-04-22T21:39:12.581Z,11.10
2019-04-22T21:41:46.826Z,11.10
2019-04-22T21:44:14.049Z,11.10
2019-04-22T21:46:51.046Z,11.00
2019-04-22T21:49:18.710Z,11.00
2019-04-22T21:51:49.575Z,10.90
2019-04-22T21:54:22.157Z,10.90
2019-04-22T21:57:07.485Z,10.90
2019-04-22T21:59:30.963Z,10.90
2019-04-22T22:02:07.198Z,10.80
2019-04-22T22:04:24.514Z,10.80
2019-04-22T22:06:48.857Z,10.80
2019-04-22T22:09:34.608Z,10.70
2019-04-22T22:11:59.719Z,10.70
2019-04-22T22:14:27.636Z,10.60
2019-04-22T22:16:53.003Z,10.60
2019-04-22T22:19:32.738Z,10.60
2019-04-22T22:22:05.984Z,10.50
2019-04-22T22:24:41.383Z,10.50
2019-04-22T22:27:04.941Z,10.40
2019-04-22T22:29:43.571Z,10.40
2019-04-22T22:32:05.368Z,10.40
2019-04-22T22:34:36.219Z,10.30
2019-04-22T22:36:55.935Z,10.30
2019-04-22T22:39:27.862Z,10.20
2019-04-22T22:41:44.160Z,10.10
2019-04-22T22:44:24.462Z,10.10
2019-04-22T22:47:03.223Z,10.10
2019-04-22T22:49:35.863Z,10.10
2019-04-22T22:52:31.032Z,10.00
2019-04-22T22:54:35.010Z,10.00
2019-04-22T22:57:12.103Z,9.90
2019-04-22T22:59:38.257Z,9.90
2019-04-22T23:02:06.039Z,9.80
2019-04-22T23:04:39.578Z,9.70
2019-04-22T23:07:11.168Z,9.70
2019-04-22T23:09:41.848Z,9.70
2019-04-22T23:12:12.172Z,9.70
2019-04-22T23:14:37.051Z,9.60
2019-04-22T23:16:53.476Z,9.70
2019-04-22T23:19:17.886Z,9.60
2019-04-22T23:21:53.880Z,9.60
2019-04-22T23:24:48.169Z,9.60
2019-04-22T23:27:26.233Z,9.50
2019-04-22T23:29:49.639Z,9.50
2019-04-22T23:32:25.906Z,9.50
2019-04-22T23:35:01.360Z,9.40
2019-04-22T23:37:29.237Z,9.40
2019-04-22T23:40:11.713Z,9.30
2019-04-22T23:42:33.723Z,9.30
2019-04-22T23:45:12.287Z,9.20
2019-04-22T23:47:29.902Z,9.20
2019-04-22T23:50:08.840Z,9.20
2019-04-22T23:52:35.662Z,9.20
2019-04-22T23:55:11.640Z,9.10
2019-04-22T23:57:43.778Z,9.10
